createdAt,value
2023-01-09T00:00:03.671Z,5.94
2023-01-09T00:01:03.591Z,5.94
2023-01-09T00:02:04.531Z,5.94
2023-01-09T00:03:04.392Z,5.94
2023-01-09T00:04:04.556Z,5.94
2023-01-09T00:05:04.313Z,6.00
2023-01-09T00:06:04.343Z,5.94
2023-01-09T00:07:04.412Z,5.94
2023-01-09T00:08:04.434Z,5.94
2023-01-09T00:09:04.461Z,5.94
2023-01-09T00:10:04.418Z,6.00
2023-01-09T00:11:04.232Z,6.00
2023-01-09T00:12:04.248Z,6.00
2023-01-09T00:13:04.249Z,6.00
2023-01-09T00:14:04.361Z,6.00
2023-01-09T00:15:04.163Z,6.00
2023-01-09T00:16:04.156Z,6.00
2023-01-09T00:17:04.131Z,6.00
2023-01-09T00:18:03.991Z,6.00
2023-01-09T00:19:04.050Z,6.00
2023-01-09T00:20:04.019Z,6.00
2023-01-09T00:21:03.882Z,6.00
2023-01-09T00:22:03.807Z,6.00
2023-01-09T00:23:04.094Z,5.94
2023-01-09T00:24:04.023Z,5.94
2023-01-09T00:25:03.980Z,5.94
2023-01-09T00:26:03.922Z,6.00
2023-01-09T00:27:03.943Z,6.00
2023-01-09T00:28:03.833Z,6.00
2023-01-09T00:29:04.021Z,6.00
2023-01-09T00:30:03.919Z,6.06
2023-01-09T00:31:04.089Z,6.06
2023-01-09T00:32:03.948Z,6.06
2023-01-09T00:33:03.871Z,6.06
2023-01-09T00:34:03.602Z,6.06
2023-01-09T00:35:03.728Z,6.06
2023-01-09T00:36:03.653Z,6.12
2023-01-09T00:37:03.696Z,6.12
2023-01-09T00:38:05.384Z,6.12
2023-01-09T00:39:04.638Z,6.12
2023-01-09T00:40:04.503Z,6.12
2023-01-09T00:41:04.503Z,6.12
2023-01-09T00:42:04.433Z,6.12
2023-01-09T00:43:03.979Z,6.12
2023-01-09T00:44:03.750Z,6.12
2023-01-09T00:45:03.764Z,6.12
2023-01-09T00:46:03.781Z,6.12
2023-01-09T00:47:03.739Z,6.12
2023-01-09T00:48:03.693Z,6.12
2023-01-09T00:49:03.620Z,6.12
2023-01-09T00:50:03.550Z,6.12
2023-01-09T00:51:04.402Z,6.12
2023-01-09T00:52:03.668Z,6.12
2023-01-09T00:53:03.585Z,6.19
2023-01-09T00:54:03.582Z,6.12
2023-01-09T00:55:03.592Z,6.12
2023-01-09T00:56:03.590Z,6.12
2023-01-09T00:57:03.661Z,6.12
2023-01-09T00:58:03.599Z,6.12
2023-01-09T00:59:03.513Z,6.19
2023-01-09T01:00:03.502Z,6.19
2023-01-09T01:01:04.560Z,6.19
2023-01-09T01:02:04.573Z,6.19
2023-01-09T01:03:04.350Z,6.19
2023-01-09T01:04:04.141Z,6.19
2023-01-09T01:05:04.231Z,6.19
2023-01-09T01:06:04.168Z,6.19
2023-01-09T01:07:04.395Z,6.19
2023-01-09T01:08:04.302Z,6.19
2023-01-09T01:09:04.224Z,6.19
2023-01-09T01:10:04.483Z,6.19
2023-01-09T01:11:03.673Z,6.19
2023-01-09T01:12:03.603Z,6.19
2023-01-09T01:13:03.515Z,6.19
2023-01-09T01:14:04.403Z,6.12
2023-01-09T01:15:04.316Z,6.19
2023-01-09T01:16:04.305Z,6.12
2023-01-09T01:17:04.321Z,6.19
2023-01-09T01:18:04.226Z,6.19
2023-01-09T01:19:04.146Z,6.12
2023-01-09T01:20:04.222Z,6.19
2023-01-09T01:21:04.150Z,6.19
2023-01-09T01:22:03.597Z,6.19
2023-01-09T01:23:03.594Z,6.19
2023-01-09T01:24:03.512Z,6.19
2023-01-09T01:25:03.439Z,6.19
2023-01-09T01:26:03.511Z,6.19
2023-01-09T01:27:04.390Z,6.19
2023-01-09T01:28:03.433Z,6.19
2023-01-09T01:29:04.389Z,6.19
2023-01-09T01:30:03.417Z,6.19
2023-01-09T01:31:03.558Z,6.19
2023-01-09T01:32:03.513Z,6.19
2023-01-09T01:33:03.521Z,6.19
2023-01-09T01:34:04.389Z,6.19
2023-01-09T01:35:04.401Z,6.19
2023-01-09T01:36:04.396Z,6.19
2023-01-09T01:37:04.388Z,6.19
2023-01-09T01:38:04.469Z,6.19
2023-01-09T01:39:04.383Z,6.19
2023-01-09T01:40:04.306Z,6.19
2023-01-09T01:41:04.149Z,6.19
2023-01-09T01:42:04.151Z,6.19
2023-01-09T01:43:03.673Z,6.19
2023-01-09T01:44:03.901Z,6.19
2023-01-09T01:45:03.912Z,6.19
2023-01-09T01:46:03.958Z,6.25
2023-01-09T01:47:03.828Z,6.25
2023-01-09T01:48:03.769Z,6.19
2023-01-09T01:49:03.753Z,6.25
2023-01-09T01:50:03.754Z,6.25
2023-01-09T01:51:03.775Z,6.25
2023-01-09T01:52:03.697Z,6.25
2023-01-09T01:53:03.581Z,6.25
2023-01-09T01:54:03.591Z,6.25
2023-01-09T01:55:03.510Z,6.25
2023-01-09T01:56:03.511Z,6.31
2023-01-09T01:57:03.423Z,6.38
2023-01-09T01:58:03.438Z,6.38
2023-01-09T01:59:03.457Z,6.38
2023-01-09T02:00:04.476Z,6.31
2023-01-09T02:01:04.504Z,6.31
2023-01-09T02:02:04.603Z,6.38
2023-01-09T02:03:04.361Z,6.31
2023-01-09T02:04:04.353Z,6.31
2023-01-09T02:05:04.238Z,6.38
2023-01-09T02:06:04.226Z,6.38
2023-01-09T02:07:04.286Z,6.38
2023-01-09T02:08:04.232Z,6.38
2023-01-09T02:09:04.237Z,6.38
2023-01-09T02:10:04.315Z,6.38
2023-01-09T02:11:04.252Z,6.38
2023-01-09T02:12:04.228Z,6.38
2023-01-09T02:13:04.152Z,6.38
2023-01-09T02:14:04.072Z,6.44
2023-01-09T02:15:04.067Z,6.38
2023-01-09T02:16:04.172Z,6.38
2023-01-09T02:17:04.155Z,6.44
2023-01-09T02:18:04.071Z,6.44
2023-01-09T02:19:04.157Z,6.38
2023-01-09T02:20:04.145Z,6.44
2023-01-09T02:21:04.153Z,6.44
2023-01-09T02:22:04.148Z,6.44
2023-01-09T02:23:04.149Z,6.44
2023-01-09T02:24:03.506Z,6.44
2023-01-09T02:25:03.422Z,6.44
2023-01-09T02:26:03.521Z,6.50
2023-01-09T02:27:03.426Z,6.50
2023-01-09T02:28:03.595Z,6.50
2023-01-09T02:29:03.517Z,6.50
2023-01-09T02:30:03.445Z,6.50
2023-01-09T02:31:04.385Z,6.50
2023-01-09T02:32:03.433Z,6.50
2023-01-09T02:33:04.381Z,6.50
2023-01-09T02:34:04.399Z,6.50
2023-01-09T02:35:04.390Z,6.50
2023-01-09T02:36:04.391Z,6.50
2023-01-09T02:37:04.383Z,6.50
2023-01-09T02:38:04.385Z,6.50
2023-01-09T02:39:04.310Z,6.50
2023-01-09T02:40:04.314Z,6.50
2023-01-09T02:41:04.235Z,6.50
2023-01-09T02:42:04.287Z,6.50
2023-01-09T02:43:04.232Z,6.50
2023-01-09T02:44:04.099Z,6.50
2023-01-09T02:45:04.151Z,6.50
2023-01-09T02:46:04.217Z,6.50
2023-01-09T02:47:04.065Z,6.50
2023-01-09T02:48:04.076Z,6.50
2023-01-09T02:49:04.034Z,6.50
2023-01-09T02:50:03.986Z,6.50
2023-01-09T02:51:03.908Z,6.50
2023-01-09T02:52:03.909Z,6.50
2023-01-09T02:53:03.908Z,6.50
2023-01-09T02:54:03.752Z,6.50
2023-01-09T02:55:03.766Z,6.50
2023-01-09T02:56:03.592Z,6.56
2023-01-09T02:57:03.589Z,6.50
2023-01-09T02:58:03.503Z,6.50
2023-01-09T02:59:03.517Z,6.50
2023-01-09T03:00:03.425Z,6.50
2023-01-09T03:01:03.502Z,6.50
2023-01-09T03:02:03.596Z,6.50
2023-01-09T03:03:04.422Z,6.56
2023-01-09T03:04:04.388Z,6.56
2023-01-09T03:05:04.321Z,6.56
2023-01-09T03:06:04.308Z,6.56
2023-01-09T03:07:04.306Z,6.56
2023-01-09T03:08:04.232Z,6.56
2023-01-09T03:09:04.151Z,6.50
2023-01-09T03:10:04.226Z,6.56
2023-01-09T03:11:04.151Z,6.56
2023-01-09T03:12:04.159Z,6.56
2023-01-09T03:13:04.066Z,6.56
2023-01-09T03:14:04.003Z,6.56
2023-01-09T03:15:03.999Z,6.56
2023-01-09T03:16:03.950Z,6.56
2023-01-09T03:17:04.072Z,6.56
2023-01-09T03:18:04.074Z,6.56
2023-01-09T03:19:03.905Z,6.56
2023-01-09T03:20:03.833Z,6.50
2023-01-09T03:21:03.915Z,6.50
2023-01-09T03:22:03.829Z,6.50
2023-01-09T03:23:03.749Z,6.56
2023-01-09T03:24:03.830Z,6.50
2023-01-09T03:25:03.773Z,6.56
2023-01-09T03:26:03.677Z,6.56
2023-01-09T03:27:03.666Z,6.56
2023-01-09T03:28:03.583Z,6.56
2023-01-09T03:29:03.505Z,6.62
2023-01-09T03:30:03.592Z,6.62
2023-01-09T03:31:04.380Z,6.56
2023-01-09T03:32:03.433Z,6.56
2023-01-09T03:33:03.520Z,6.56
2023-01-09T03:34:03.467Z,6.62
2023-01-09T03:35:04.395Z,6.62
2023-01-09T03:36:04.347Z,6.62
2023-01-09T03:37:04.231Z,6.62
2023-01-09T03:38:05.638Z,6.62
2023-01-09T03:39:04.077Z,6.62
2023-01-09T03:40:03.994Z,6.62
2023-01-09T03:41:03.989Z,6.62
2023-01-09T03:42:03.948Z,6.62
2023-01-09T03:43:03.823Z,6.62
2023-01-09T03:44:03.831Z,6.62
2023-01-09T03:45:03.905Z,6.62
2023-01-09T03:46:03.835Z,6.69
2023-01-09T03:47:03.830Z,6.62
2023-01-09T03:48:03.827Z,6.62
2023-01-09T03:49:03.593Z,6.69
2023-01-09T03:50:03.592Z,6.69
2023-01-09T03:51:03.593Z,6.69
2023-01-09T03:52:03.599Z,6.69
2023-01-09T03:53:03.501Z,6.69
2023-01-09T03:54:03.528Z,6.69
2023-01-09T03:55:04.384Z,6.69
2023-01-09T03:56:04.312Z,6.69
2023-01-09T03:57:04.317Z,6.69
2023-01-09T03:58:04.158Z,6.75
2023-01-09T03:59:04.153Z,6.75
2023-01-09T04:00:04.162Z,6.75
2023-01-09T04:01:04.264Z,6.75
2023-01-09T04:02:04.278Z,6.75
2023-01-09T04:03:04.077Z,6.75
2023-01-09T04:04:04.010Z,6.75
2023-01-09T04:05:03.934Z,6.75
2023-01-09T04:06:03.905Z,6.75
2023-01-09T04:07:03.914Z,6.75
2023-01-09T04:08:03.911Z,6.75
2023-01-09T04:09:03.747Z,6.75
2023-01-09T04:10:03.753Z,6.75
2023-01-09T04:11:03.681Z,6.81
2023-01-09T04:12:03.589Z,6.81
2023-01-09T04:13:03.675Z,6.81
2023-01-09T04:14:03.590Z,6.81
2023-01-09T04:15:03.513Z,6.81
2023-01-09T04:16:03.557Z,6.81
2023-01-09T04:17:03.601Z,6.81
2023-01-09T04:18:03.516Z,6.81
2023-01-09T04:19:03.513Z,6.81
2023-01-09T04:20:03.682Z,6.81
2023-01-09T04:21:03.677Z,6.81
2023-01-09T04:22:03.611Z,6.81
2023-01-09T04:23:03.424Z,6.81
2023-01-09T04:24:03.516Z,6.81
2023-01-09T04:25:04.472Z,6.81
2023-01-09T04:26:04.320Z,6.81
2023-01-09T04:27:04.439Z,6.81
2023-01-09T04:28:04.149Z,6.81
2023-01-09T04:29:04.068Z,6.81
2023-01-09T04:30:04.003Z,6.81
2023-01-09T04:31:03.930Z,6.81
2023-01-09T04:32:03.911Z,6.81
2023-01-09T04:33:03.909Z,6.88
2023-01-09T04:34:04.079Z,6.88
2023-01-09T04:35:04.067Z,6.88
2023-01-09T04:36:03.994Z,6.88
2023-01-09T04:37:03.915Z,6.88
2023-01-09T04:38:03.841Z,6.88
2023-01-09T04:39:03.939Z,6.88
2023-01-09T04:40:03.832Z,6.88
2023-01-09T04:41:04.252Z,6.88
2023-01-09T04:42:04.074Z,6.88
2023-01-09T04:43:04.073Z,6.88
2023-01-09T04:44:04.318Z,6.88
2023-01-09T04:45:04.237Z,6.94
2023-01-09T04:46:04.129Z,6.94
2023-01-09T04:47:04.314Z,6.94
2023-01-09T04:48:04.561Z,6.94
2023-01-09T04:49:03.680Z,7.00
2023-01-09T04:50:03.912Z,7.00
2023-01-09T04:51:03.838Z,7.00
2023-01-09T04:52:03.672Z,7.00
2023-01-09T04:53:03.683Z,7.00
2023-01-09T04:54:03.596Z,7.00
2023-01-09T04:55:03.916Z,7.00
2023-01-09T04:56:03.867Z,7.00
2023-01-09T04:57:03.755Z,7.00
2023-01-09T04:58:03.832Z,7.00
2023-01-09T04:59:03.741Z,7.00
2023-01-09T05:00:03.950Z,7.00
2023-01-09T05:01:03.969Z,7.00
2023-01-09T05:02:03.986Z,7.00
2023-01-09T05:03:03.916Z,7.00
2023-01-09T05:04:03.931Z,7.06
2023-01-09T05:05:03.757Z,7.06
2023-01-09T05:06:03.773Z,7.06
2023-01-09T05:07:03.665Z,7.06
2023-01-09T05:08:03.599Z,7.00
2023-01-09T05:09:03.506Z,7.00
2023-01-09T05:10:03.595Z,7.00
2023-01-09T05:11:03.687Z,7.00
2023-01-09T05:12:03.601Z,7.00
2023-01-09T05:13:03.589Z,7.00
2023-01-09T05:14:03.513Z,7.00
2023-01-09T05:15:04.477Z,7.00
2023-01-09T05:16:03.447Z,7.00
2023-01-09T05:17:03.521Z,7.06
2023-01-09T05:18:03.510Z,7.06
2023-01-09T05:19:04.404Z,7.06
2023-01-09T05:20:04.313Z,7.00
2023-01-09T05:21:04.230Z,7.06
2023-01-09T05:22:04.318Z,7.06
2023-01-09T05:23:04.240Z,7.06
2023-01-09T05:24:04.236Z,7.06
2023-01-09T05:25:04.674Z,7.06
2023-01-09T05:26:03.592Z,7.06
2023-01-09T05:27:03.591Z,7.00
2023-01-09T05:28:03.590Z,7.00
2023-01-09T05:29:03.586Z,7.00
2023-01-09T05:30:03.516Z,7.00
2023-01-09T05:31:03.425Z,7.00
2023-01-09T05:32:03.589Z,7.00
2023-01-09T05:33:03.513Z,7.00
2023-01-09T05:34:03.444Z,7.00
2023-01-09T05:35:03.528Z,7.00
2023-01-09T05:36:04.469Z,7.06
2023-01-09T05:37:04.310Z,7.00
2023-01-09T05:38:04.340Z,7.06
2023-01-09T05:39:03.512Z,7.06
2023-01-09T05:40:04.390Z,7.06
2023-01-09T05:41:04.307Z,7.06
2023-01-09T05:42:04.313Z,7.06
2023-01-09T05:43:04.223Z,7.06
2023-01-09T05:44:04.227Z,7.06
2023-01-09T05:45:04.241Z,7.06
2023-01-09T05:46:04.340Z,7.12
2023-01-09T05:47:04.069Z,7.12
2023-01-09T05:48:03.996Z,7.12
2023-01-09T05:49:03.913Z,7.12
2023-01-09T05:50:03.937Z,7.19
2023-01-09T05:51:04.023Z,7.19
2023-01-09T05:52:03.987Z,7.19
2023-01-09T05:53:04.028Z,7.19
2023-01-09T05:54:03.923Z,7.19
2023-01-09T05:55:04.000Z,7.19
2023-01-09T05:56:04.144Z,7.19
2023-01-09T05:57:04.222Z,7.19
2023-01-09T05:58:04.070Z,7.25
2023-01-09T05:59:04.071Z,7.19
2023-01-09T06:00:04.001Z,7.25
2023-01-09T06:01:04.146Z,7.25
2023-01-09T06:02:04.071Z,7.25
2023-01-09T06:03:03.980Z,7.25
2023-01-09T06:04:03.924Z,7.25
2023-01-09T06:05:03.997Z,7.25
2023-01-09T06:06:04.023Z,7.25
2023-01-09T06:07:03.914Z,7.25
2023-01-09T06:08:03.827Z,7.25
2023-01-09T06:09:03.782Z,7.25
2023-01-09T06:10:03.755Z,7.25
2023-01-09T06:11:03.750Z,7.25
2023-01-09T06:12:03.679Z,7.25
2023-01-09T06:13:03.673Z,7.25
2023-01-09T06:14:03.607Z,7.25
2023-01-09T06:15:03.518Z,7.25
2023-01-09T06:16:04.555Z,7.25
2023-01-09T06:17:03.672Z,7.25
2023-01-09T06:18:03.670Z,7.25
2023-01-09T06:19:03.607Z,7.19
2023-01-09T06:20:03.509Z,7.25
2023-01-09T06:21:03.752Z,7.25
2023-01-09T06:22:03.515Z,7.25
2023-01-09T06:23:03.520Z,7.25
2023-01-09T06:24:04.392Z,7.25
2023-01-09T06:25:04.392Z,7.19
2023-01-09T06:26:04.308Z,7.19
2023-01-09T06:27:04.338Z,7.25
2023-01-09T06:28:04.315Z,7.25
2023-01-09T06:29:04.316Z,7.19
2023-01-09T06:30:04.328Z,7.19
2023-01-09T06:31:04.289Z,7.19
2023-01-09T06:32:04.156Z,7.19
2023-01-09T06:33:04.069Z,7.19
2023-01-09T06:34:03.994Z,7.19
2023-01-09T06:35:03.993Z,7.25
2023-01-09T06:36:03.916Z,7.25
2023-01-09T06:37:03.913Z,7.25
2023-01-09T06:38:03.913Z,7.25
2023-01-09T06:39:03.914Z,7.25
2023-01-09T06:40:03.867Z,7.25
2023-01-09T06:41:03.757Z,7.25
2023-01-09T06:42:03.681Z,7.25
2023-01-09T06:43:03.761Z,7.25
2023-01-09T06:44:03.708Z,7.25
2023-01-09T06:45:03.586Z,7.25
2023-01-09T06:46:03.696Z,7.25
2023-01-09T06:47:03.725Z,7.31
2023-01-09T06:48:03.525Z,7.31
2023-01-09T06:49:04.482Z,7.31
2023-01-09T06:50:04.389Z,7.31
2023-01-09T06:51:04.318Z,7.31
2023-01-09T06:52:04.311Z,7.31
2023-01-09T06:53:04.233Z,7.31
2023-01-09T06:54:04.233Z,7.31
2023-01-09T06:55:04.093Z,7.31
2023-01-09T06:56:04.072Z,7.31
2023-01-09T06:57:04.172Z,7.31
2023-01-09T06:58:04.073Z,7.31
2023-01-09T06:59:03.992Z,7.31
2023-01-09T07:00:04.005Z,7.31
2023-01-09T07:01:04.038Z,7.31
2023-01-09T07:02:04.030Z,7.31
2023-01-09T07:03:03.998Z,7.31
2023-01-09T07:04:04.035Z,7.31
2023-01-09T07:05:03.989Z,7.31
2023-01-09T07:06:03.909Z,7.31
2023-01-09T07:07:04.006Z,7.31
2023-01-09T07:08:03.992Z,7.31
2023-01-09T07:09:03.997Z,7.31
2023-01-09T07:10:04.013Z,7.31
2023-01-09T07:11:04.033Z,7.31
2023-01-09T07:12:04.159Z,7.31
2023-01-09T07:13:04.156Z,7.31
2023-01-09T07:14:04.079Z,7.38
2023-01-09T07:15:04.001Z,7.31
2023-01-09T07:16:04.092Z,7.38
2023-01-09T07:17:04.012Z,7.38
2023-01-09T07:18:04.009Z,7.38
2023-01-09T07:19:03.932Z,7.38
2023-01-09T07:20:03.841Z,7.38
2023-01-09T07:21:03.843Z,7.38
2023-01-09T07:22:03.829Z,7.38
2023-01-09T07:23:03.833Z,7.38
2023-01-09T07:24:03.753Z,7.38
2023-01-09T07:25:03.685Z,7.38
2023-01-09T07:26:03.624Z,7.38
2023-01-09T07:27:03.606Z,7.38
2023-01-09T07:28:03.443Z,7.38
2023-01-09T07:29:04.422Z,7.38
2023-01-09T07:30:04.428Z,7.38
2023-01-09T07:31:04.558Z,7.38
2023-01-09T07:32:04.397Z,7.38
2023-01-09T07:33:04.329Z,7.44
2023-01-09T07:34:04.231Z,7.44
2023-01-09T07:35:04.164Z,7.44
2023-01-09T07:36:04.102Z,7.44
2023-01-09T07:37:04.002Z,7.44
2023-01-09T07:38:04.001Z,7.44
2023-01-09T07:39:03.833Z,7.44
2023-01-09T07:40:03.928Z,7.44
2023-01-09T07:41:03.844Z,7.44
2023-01-09T07:42:03.680Z,7.44
2023-01-09T07:43:03.760Z,7.44
2023-01-09T07:44:03.593Z,7.44
2023-01-09T07:45:03.604Z,7.44
2023-01-09T07:46:03.647Z,7.44
2023-01-09T07:47:04.468Z,7.44
2023-01-09T07:48:04.318Z,7.50
2023-01-09T07:49:04.313Z,7.44
2023-01-09T07:50:04.247Z,7.50
2023-01-09T07:51:04.155Z,7.50
2023-01-09T07:52:04.079Z,7.50
2023-01-09T07:53:03.982Z,7.50
2023-01-09T07:54:03.995Z,7.50
2023-01-09T07:55:04.091Z,7.50
2023-01-09T07:56:04.022Z,7.50
2023-01-09T07:57:03.922Z,7.50
2023-01-09T07:58:03.928Z,7.50
2023-01-09T07:59:03.847Z,7.50
2023-01-09T08:00:03.845Z,7.50
2023-01-09T08:01:03.846Z,7.56
2023-01-09T08:02:03.830Z,7.56
2023-01-09T08:03:03.738Z,7.56
2023-01-09T08:04:03.588Z,7.56
2023-01-09T08:05:03.517Z,7.56
2023-01-09T08:06:03.514Z,7.56
2023-01-09T08:07:04.394Z,7.56
2023-01-09T08:08:04.405Z,7.56
2023-01-09T08:09:04.240Z,7.56
2023-01-09T08:10:04.240Z,7.56
2023-01-09T08:11:04.179Z,7.56
2023-01-09T08:12:04.238Z,7.56
2023-01-09T08:13:04.153Z,7.56
2023-01-09T08:14:04.075Z,7.56
2023-01-09T08:15:04.088Z,7.56
2023-01-09T08:16:04.282Z,7.56
2023-01-09T08:17:04.090Z,7.56
2023-01-09T08:18:04.157Z,7.56
2023-01-09T08:19:04.085Z,7.56
2023-01-09T08:20:04.000Z,7.56
2023-01-09T08:21:04.077Z,7.56
2023-01-09T08:22:03.987Z,7.62
2023-01-09T08:23:03.919Z,7.62
2023-01-09T08:24:03.851Z,7.62
2023-01-09T08:25:03.833Z,7.62
2023-01-09T08:26:03.832Z,7.62
2023-01-09T08:27:03.754Z,7.62
2023-01-09T08:28:03.675Z,7.62
2023-01-09T08:29:03.678Z,7.62
2023-01-09T08:30:03.517Z,7.62
2023-01-09T08:31:03.541Z,7.62
2023-01-09T08:32:04.396Z,7.62
2023-01-09T08:33:04.321Z,7.62
2023-01-09T08:34:04.314Z,7.62
2023-01-09T08:35:04.226Z,7.62
2023-01-09T08:36:04.152Z,7.62
2023-01-09T08:37:04.086Z,7.62
2023-01-09T08:38:04.075Z,7.62
2023-01-09T08:39:03.910Z,7.62
2023-01-09T08:40:03.915Z,7.62
2023-01-09T08:41:03.914Z,7.62
2023-01-09T08:42:03.903Z,7.62
2023-01-09T08:43:03.928Z,7.62
2023-01-09T08:44:03.839Z,7.62
2023-01-09T08:45:03.839Z,7.62
2023-01-09T08:46:04.036Z,7.62
2023-01-09T08:47:03.848Z,7.62
2023-01-09T08:48:03.762Z,7.62
2023-01-09T08:49:03.749Z,7.62
2023-01-09T08:50:03.669Z,7.62
2023-01-09T08:51:03.675Z,7.69
2023-01-09T08:52:03.615Z,7.69
2023-01-09T08:53:03.600Z,7.69
2023-01-09T08:54:03.605Z,7.69
2023-01-09T08:55:03.514Z,7.69
2023-01-09T08:56:04.483Z,7.69
2023-01-09T08:57:04.418Z,7.69
2023-01-09T08:58:04.331Z,7.75
2023-01-09T08:59:04.233Z,7.75
2023-01-09T09:00:03.679Z,7.75
2023-01-09T09:01:03.680Z,7.69
2023-01-09T09:02:03.509Z,7.75
2023-01-09T09:03:03.666Z,7.75
2023-01-09T09:04:04.394Z,7.75
2023-01-09T09:05:03.674Z,7.75
2023-01-09T09:06:03.612Z,7.75
2023-01-09T09:07:03.598Z,7.75
2023-01-09T09:08:03.437Z,7.75
2023-01-09T09:09:03.430Z,7.75
2023-01-09T09:10:03.505Z,7.75
2023-01-09T09:11:04.399Z,7.69
2023-01-09T09:12:04.311Z,7.75
2023-01-09T09:13:03.434Z,7.69
2023-01-09T09:14:03.427Z,7.69
2023-01-09T09:15:04.488Z,7.69
2023-01-09T09:16:04.448Z,7.69
2023-01-09T09:17:04.390Z,7.69
2023-01-09T09:18:04.400Z,7.69
2023-01-09T09:19:04.418Z,7.69
2023-01-09T09:20:04.432Z,7.69
2023-01-09T09:21:04.398Z,7.69
2023-01-09T09:22:04.399Z,7.69
2023-01-09T09:23:04.396Z,7.69
2023-01-09T09:24:03.427Z,7.69
2023-01-09T09:25:03.432Z,7.75
2023-01-09T09:26:04.392Z,7.69
2023-01-09T09:27:04.322Z,7.75
2023-01-09T09:28:04.243Z,7.69
2023-01-09T09:29:04.159Z,7.69
2023-01-09T09:30:04.168Z,7.75
2023-01-09T09:31:04.135Z,7.75
2023-01-09T09:32:04.070Z,7.75
2023-01-09T09:33:04.007Z,7.75
2023-01-09T09:34:03.914Z,7.75
2023-01-09T09:35:03.935Z,7.75
2023-01-09T09:36:03.826Z,7.75
2023-01-09T09:37:03.940Z,7.75
2023-01-09T09:38:05.121Z,7.81
2023-01-09T09:39:03.827Z,7.75
2023-01-09T09:40:17.369Z,7.81
2023-01-09T09:41:03.882Z,7.81
2023-01-09T09:42:03.831Z,7.81
2023-01-09T09:43:03.762Z,7.75
2023-01-09T09:44:04.810Z,7.81
2023-01-09T09:45:03.760Z,7.81
2023-01-09T09:46:03.785Z,7.81
2023-01-09T09:47:03.762Z,7.81
2023-01-09T09:48:03.586Z,7.81
2023-01-09T09:49:04.402Z,7.81
2023-01-09T09:50:03.429Z,7.81
2023-01-09T09:51:04.390Z,7.81
2023-01-09T09:52:03.511Z,7.88
2023-01-09T09:53:03.536Z,7.88
2023-01-09T09:54:04.388Z,7.94
2023-01-09T09:55:03.831Z,7.94
2023-01-09T09:56:03.839Z,8.00
2023-01-09T09:57:03.744Z,8.00
2023-01-09T09:58:03.746Z,8.00
2023-01-09T09:59:03.702Z,8.00
2023-01-09T10:00:03.666Z,8.00
2023-01-09T10:01:04.395Z,8.06
2023-01-09T10:02:04.426Z,8.06
2023-01-09T10:03:04.460Z,8.06
2023-01-09T10:04:03.581Z,8.06
2023-01-09T10:05:03.517Z,8.06
2023-01-09T10:06:03.538Z,8.06
2023-01-09T10:07:04.476Z,8.06
2023-01-09T10:08:15.100Z,8.06
2023-01-09T10:09:04.393Z,8.06
2023-01-09T10:10:04.391Z,8.06
2023-01-09T10:11:04.315Z,8.06
2023-01-09T10:12:04.158Z,8.06
2023-01-09T10:13:04.151Z,8.06
2023-01-09T10:14:05.967Z,8.06
2023-01-09T10:15:04.070Z,8.06
2023-01-09T10:16:04.147Z,8.06
2023-01-09T10:17:04.068Z,8.06
2023-01-09T10:18:04.344Z,8.06
2023-01-09T10:19:04.231Z,8.06
2023-01-09T10:20:04.243Z,8.12
2023-01-09T10:21:04.233Z,8.12
2023-01-09T10:22:04.227Z,8.12
2023-01-09T10:23:04.148Z,8.12
2023-01-09T10:24:04.078Z,8.12
2023-01-09T10:25:04.084Z,8.12
2023-01-09T10:26:04.147Z,8.12
2023-01-09T10:27:04.092Z,8.12
2023-01-09T10:28:04.093Z,8.12
2023-01-09T10:29:03.925Z,8.12
2023-01-09T10:30:04.009Z,8.12
2023-01-09T10:31:03.980Z,8.12
2023-01-09T10:32:03.837Z,8.12
2023-01-09T10:33:04.005Z,8.19
2023-01-09T10:34:03.826Z,8.12
2023-01-09T10:35:03.928Z,8.12
2023-01-09T10:36:03.912Z,8.12
2023-01-09T10:37:03.894Z,8.12
2023-01-09T10:38:03.750Z,8.12
2023-01-09T10:39:03.684Z,8.12
2023-01-09T10:40:03.669Z,8.12
2023-01-09T10:41:03.682Z,8.12
2023-01-09T10:42:03.607Z,8.12
2023-01-09T10:43:03.509Z,8.12
2023-01-09T10:44:03.519Z,8.12
2023-01-09T10:45:04.387Z,8.06
2023-01-09T10:46:04.431Z,8.06
2023-01-09T10:47:04.400Z,8.06
2023-01-09T10:48:04.397Z,8.12
2023-01-09T10:49:04.312Z,8.06
2023-01-09T10:50:04.308Z,8.06
2023-01-09T10:51:04.241Z,8.12
2023-01-09T10:52:04.307Z,8.12
2023-01-09T10:53:04.318Z,8.12
2023-01-09T10:54:04.306Z,8.12
2023-01-09T10:55:04.223Z,8.12
2023-01-09T10:56:04.228Z,8.12
2023-01-09T10:57:04.322Z,8.12
2023-01-09T10:58:04.337Z,8.06
2023-01-09T10:59:04.245Z,8.06
2023-01-09T11:00:04.149Z,8.06
2023-01-09T11:01:04.100Z,8.12
2023-01-09T11:02:04.044Z,8.06
2023-01-09T11:03:04.059Z,8.06
2023-01-09T11:04:04.008Z,8.06
2023-01-09T11:05:03.913Z,8.00
2023-01-09T11:06:04.004Z,8.06
2023-01-09T11:07:03.914Z,8.00
2023-01-09T11:08:03.827Z,8.00
2023-01-09T11:09:03.911Z,8.00
2023-01-09T11:10:03.921Z,8.00
2023-01-09T11:11:03.926Z,8.00
2023-01-09T11:12:03.743Z,8.00
2023-01-09T11:13:03.755Z,8.00
2023-01-09T11:14:03.688Z,8.00
2023-01-09T11:15:03.671Z,8.00
2023-01-09T11:16:03.690Z,8.00
2023-01-09T11:17:03.675Z,8.00
2023-01-09T11:18:03.598Z,8.00
2023-01-09T11:19:03.516Z,8.00
2023-01-09T11:20:03.593Z,8.00
2023-01-09T11:21:03.518Z,8.00
2023-01-09T11:22:04.472Z,8.00
2023-01-09T11:23:04.395Z,8.06
2023-01-09T11:24:04.309Z,8.06
2023-01-09T11:25:04.234Z,8.06
2023-01-09T11:26:04.152Z,8.06
2023-01-09T11:27:04.256Z,8.12
2023-01-09T11:28:04.237Z,8.12
2023-01-09T11:29:04.243Z,8.06
2023-01-09T11:30:04.232Z,8.06
2023-01-09T11:31:04.131Z,8.12
2023-01-09T11:32:04.148Z,8.12
2023-01-09T11:33:04.075Z,8.12
2023-01-09T11:34:04.159Z,8.12
2023-01-09T11:35:04.236Z,8.12
2023-01-09T11:36:04.385Z,8.12
2023-01-09T11:37:04.376Z,8.12
2023-01-09T11:38:04.331Z,8.06
2023-01-09T11:39:04.307Z,8.06
2023-01-09T11:40:04.228Z,8.06
2023-01-09T11:41:04.316Z,8.06
2023-01-09T11:42:04.237Z,8.06
2023-01-09T11:43:04.314Z,8.06
2023-01-09T11:44:03.746Z,8.06
2023-01-09T11:45:03.672Z,8.06
2023-01-09T11:46:03.589Z,8.06
2023-01-09T11:47:03.600Z,8.06
2023-01-09T11:48:03.516Z,8.12
2023-01-09T11:49:04.475Z,8.12
2023-01-09T11:50:04.317Z,8.12
2023-01-09T11:51:04.236Z,8.12
2023-01-09T11:52:03.588Z,8.19
2023-01-09T11:53:03.584Z,8.19
2023-01-09T11:54:03.513Z,8.19
2023-01-09T11:55:03.671Z,8.19
2023-01-09T11:56:03.599Z,8.19
2023-01-09T11:57:03.516Z,8.25
2023-01-09T11:58:03.588Z,8.25
2023-01-09T11:59:03.590Z,8.25
2023-01-09T12:00:03.606Z,8.25
2023-01-09T12:01:03.508Z,8.25
2023-01-09T12:02:03.571Z,8.31
2023-01-09T12:03:03.647Z,8.31
2023-01-09T12:04:03.537Z,8.31
2023-01-09T12:05:03.431Z,8.31
2023-01-09T12:06:04.397Z,8.31
2023-01-09T12:07:04.312Z,8.31
2023-01-09T12:08:04.386Z,8.31
2023-01-09T12:09:04.232Z,8.31
2023-01-09T12:10:03.510Z,8.31
2023-01-09T12:11:03.530Z,8.31
2023-01-09T12:12:03.596Z,8.31
2023-01-09T12:13:04.436Z,8.31
2023-01-09T12:14:04.313Z,8.31
2023-01-09T12:15:04.310Z,8.31
2023-01-09T12:16:04.513Z,8.31
2023-01-09T12:17:04.406Z,8.31
2023-01-09T12:18:04.327Z,8.31
2023-01-09T12:19:04.222Z,8.31
2023-01-09T12:20:04.223Z,8.25
2023-01-09T12:21:04.157Z,8.25
2023-01-09T12:22:04.155Z,8.25
2023-01-09T12:23:04.159Z,8.25
2023-01-09T12:24:04.083Z,8.25
2023-01-09T12:25:04.070Z,8.25
2023-01-09T12:26:03.985Z,8.25
2023-01-09T12:27:04.066Z,8.25
2023-01-09T12:28:04.000Z,8.25
2023-01-09T12:29:03.916Z,8.25
2023-01-09T12:30:03.947Z,8.25
2023-01-09T12:31:03.916Z,8.25
2023-01-09T12:32:03.930Z,8.25
2023-01-09T12:33:03.754Z,8.25
2023-01-09T12:34:03.832Z,8.25
2023-01-09T12:35:03.844Z,8.25
2023-01-09T12:36:03.852Z,8.25
2023-01-09T12:37:03.810Z,8.25
2023-01-09T12:38:03.675Z,8.25
2023-01-09T12:39:03.601Z,8.25
2023-01-09T12:40:03.669Z,8.19
2023-01-09T12:41:04.538Z,8.19
2023-01-09T12:42:03.604Z,8.19
2023-01-09T12:43:03.511Z,8.19
2023-01-09T12:44:04.475Z,8.19
2023-01-09T12:45:04.392Z,8.19
2023-01-09T12:46:04.316Z,8.19
2023-01-09T12:47:04.158Z,8.19
2023-01-09T12:48:04.149Z,8.19
2023-01-09T12:49:04.164Z,8.19
2023-01-09T12:50:04.073Z,8.19
2023-01-09T12:51:03.993Z,8.25
2023-01-09T12:52:03.998Z,8.25
2023-01-09T12:53:03.832Z,8.25
2023-01-09T12:54:03.768Z,8.19
2023-01-09T12:55:05.075Z,8.19
2023-01-09T12:56:03.770Z,8.19
2023-01-09T12:57:03.763Z,8.19
2023-01-09T12:58:03.840Z,8.19
2023-01-09T12:59:03.839Z,8.12
2023-01-09T13:00:03.756Z,8.12
2023-01-09T13:01:03.752Z,8.12
2023-01-09T13:02:03.626Z,8.12
2023-01-09T13:03:11.625Z,8.12
2023-01-09T13:04:03.519Z,8.12
2023-01-09T13:05:03.594Z,8.12
2023-01-09T13:06:03.513Z,8.12
2023-01-09T13:07:04.397Z,8.12
2023-01-09T13:08:04.390Z,8.12
2023-01-09T13:09:04.397Z,8.12
2023-01-09T13:10:04.396Z,8.12
2023-01-09T13:11:18.772Z,8.06
2023-01-09T13:12:04.248Z,8.12
2023-01-09T13:13:04.229Z,8.12
2023-01-09T13:14:04.250Z,8.12
2023-01-09T13:15:04.154Z,8.12
2023-01-09T13:16:04.121Z,8.12
2023-01-09T13:17:06.155Z,8.12
2023-01-09T13:18:04.109Z,8.12